Time;durP1;ratioP1;P1;durP2;ratioP2;P2;SDS_P1;SDS_P2;PMS_P1;PMS_P2;Temp;Humidity;BMP_temperature;BMP_pressure;BME280_temperature;BME280_humidity;BME280_pressure;Samples;Min_cycle;Max_cycle;Signal;HPM_P1;HPM_P2
2023/05/06 00:01:50;;;;;;;;;1.00;1.00;;;;;18.50;58.69;100908.56;5077251;27;45540;-75
2023/05/06 00:04:15;;;;;;;;;1.00;1.00;;;;;18.49;58.86;100900.75;5077488;27;45687;-75
2023/05/06 00:10:03;;;;;;;;;1.00;1.00;;;;;18.44;58.51;100901.22;5076652;28;45868;-76
2023/05/06 00:12:28;;;;;;;;;1.00;1.00;;;;;18.42;58.77;100898.72;5076576;27;45751;-76
2023/05/06 00:14:53;;;;;;;;;2.00;1.50;;;;;18.39;58.94;100904.34;5077248;27;45725;-75
2023/05/06 00:17:19;;;;;;;;;0.75;0.75;;;;;18.37;58.79;100903.63;5076908;27;45546;-74
2023/05/06 00:19:44;;;;;;;;;2.00;1.25;;;;;18.36;59.05;100901.13;5076786;27;45817;-75
2023/05/06 00:22:10;;;;;;;;;1.00;1.00;;;;;18.34;58.99;100903.97;5076592;27;45659;-73
2023/05/06 00:24:35;;;;;;;;;1.75;1.75;;;;;18.31;58.54;100895.44;5092478;27;45461;-76
2023/05/06 00:27:01;;;;;;;;;2.00;2.00;;;;;18.31;58.57;100900.75;5076656;27;46296;-76
2023/05/06 00:29:26;;;;;;;;;0.75;0.75;;;;;18.28;58.72;100899.25;5076576;28;45589;-76
2023/05/06 00:31:52;;;;;;;;;2.00;2.00;;;;;18.26;59.04;100898.56;5076396;27;45636;-78
2023/05/06 00:34:17;;;;;;;;;1.25;1.00;;;;;18.25;59.08;100886.28;5076896;27;45662;-76
2023/05/06 00:40:04;;;;;;;;;2.00;2.00;;;;;18.20;58.71;100890.38;5076158;28;45918;-78
2023/05/06 00:42:30;;;;;;;;;1.00;1.00;;;;;18.17;59.34;100883.56;5076502;27;45525;-78
2023/05/06 00:44:55;;;;;;;;;1.00;1.00;;;;;18.15;59.08;100877.56;5075438;28;45446;-78
2023/05/06 00:47:21;;;;;;;;;1.00;0.50;;;;;18.14;58.95;100880.38;5076464;27;46350;-74
2023/05/06 00:49:48;;;;;;;;;1.00;1.00;;;;;18.14;59.02;100886.50;5076231;27;47062;-75
2023/05/06 00:55:36;;;;;;;;;1.00;1.00;;;;;18.09;59.23;100879.97;5076485;28;45687;-72
2023/05/06 00:58:02;;;;;;;;;0.75;0.75;;;;;18.07;59.37;100888.09;5076423;27;46734;-74
2023/05/06 01:00:27;;;;;;;;;2.00;1.25;;;;;18.01;59.18;100876.28;5076476;27;46239;-73
2023/05/06 01:02:53;;;;;;;;;1.75;1.25;;;;;18.00;59.63;100879.06;5076427;27;45768;-72
2023/05/06 01:05:21;;;;;;;;;2.00;2.00;;;;;17.98;59.71;100881.88;5076549;27;45596;-72
2023/05/06 01:08:40;;;;;;;;;1.75;1.00;;;;;17.98;59.73;100875.72;5076033;27;46513;-71
2023/05/06 01:11:42;;;;;;;;;1.00;0.75;;;;;17.95;59.91;100876.88;5013728;28;46354;-72
2023/05/06 01:14:25;;;;;;;;;2.00;1.00;;;;;17.96;59.34;100872.41;5013956;28;45792;-74
2023/05/06 01:16:57;;;;;;;;;1.00;1.00;;;;;17.95;59.66;100873.38;5013601;28;45646;-77
2023/05/06 01:19:36;;;;;;;;;0.75;0.50;;;;;17.92;59.92;100873.69;5013646;28;45839;-76
2023/05/06 01:22:04;;;;;;;;;1.00;1.00;;;;;17.90;59.80;100873.00;5013485;28;46602;-76
2023/05/06 01:24:43;;;;;;;;;1.00;1.00;;;;;17.87;60.38;100881.25;5013298;28;45632;-76
2023/05/06 01:27:11;;;;;;;;;1.50;1.50;;;;;17.86;59.91;100875.13;5013692;28;45768;-77
2023/05/06 01:29:40;;;;;;;;;2.00;2.00;;;;;17.86;60.01;100864.53;5013111;28;46600;-75
2023/05/06 01:32:32;;;;;;;;;1.25;1.00;;;;;17.87;60.39;100863.53;5012979;28;46268;-76
2023/05/06 01:38:32;;;;;;;;;3.00;2.00;;;;;17.85;60.26;100860.19;5013259;28;45736;-73
2023/05/06 01:41:00;;;;;;;;;2.00;2.00;;;;;17.87;60.00;100865.34;5021047;28;47836;-75
2023/05/06 01:43:30;;;;;;;;;2.00;1.00;;;;;17.86;60.07;100859.22;5075513;27;45864;-75
2023/05/06 01:45:56;;;;;;;;;1.00;1.00;;;;;17.87;60.53;100863.53;5075506;27;45636;-76
2023/05/06 01:48:29;;;;;;;;;1.25;1.25;;;;;17.88;60.19;100859.06;5075327;27;45511;-74
2023/05/06 01:54:16;;;;;;;;;3.00;2.00;;;;;17.88;60.45;100856.41;5075242;28;45998;-74
2023/05/06 01:56:42;;;;;;;;;1.00;1.00;;;;;17.89;60.60;100853.63;5074853;27;45687;-77
2023/05/06 01:59:07;;;;;;;;;2.25;2.00;;;;;17.89;60.41;100858.91;5075122;27;45808;-75
2023/05/06 02:01:32;;;;;;;;;1.75;1.00;;;;;17.90;60.92;100851.81;5075091;27;46186;-72
2023/05/06 02:03:58;;;;;;;;;2.00;2.00;;;;;17.88;60.58;100857.25;5075351;27;45520;-75
2023/05/06 02:09:44;;;;;;;;;1.00;1.00;;;;;17.86;60.61;100848.63;5074996;28;45526;-76
2023/05/06 02:12:10;;;;;;;;;3.00;2.00;;;;;17.87;60.91;100854.72;5074971;27;45729;-71
2023/05/06 02:14:35;;;;;;;;;2.00;2.00;;;;;17.87;60.81;100852.09;5075228;27;45610;-76
2023/05/06 02:17:04;;;;;;;;;1.00;1.00;;;;;17.88;61.12;100864.34;5075014;27;45589;-73
2023/05/06 02:19:30;;;;;;;;;1.75;1.75;;;;;17.84;60.67;100857.69;5074887;27;45797;-77
2023/05/06 02:25:17;;;;;;;;;1.00;1.00;;;;;17.84;60.94;100863.00;5066535;28;45667;-77
2023/05/06 02:27:43;;;;;;;;;2.00;1.75;;;;;17.83;60.59;100853.38;5074652;27;45643;-75
2023/05/06 02:30:10;;;;;;;;;2.00;2.00;;;;;17.82;61.08;100854.34;5075097;27;45815;-78
2023/05/06 02:32:35;;;;;;;;;3.00;2.00;;;;;17.80;61.10;100851.88;5074465;27;46673;-74
2023/05/06 02:35:01;;;;;;;;;3.00;2.00;;;;;17.81;61.02;100863.31;5074529;27;46204;-78
2023/05/06 02:40:48;;;;;;;;;3.00;2.00;;;;;17.79;60.85;100858.16;5074650;28;45784;-75
2023/05/06 02:43:13;;;;;;;;;3.00;3.00;;;;;17.79;61.26;100859.97;5074235;27;46365;-78
2023/05/06 02:45:38;;;;;;;;;2.50;2.00;;;;;17.78;60.70;100855.63;5074385;27;45725;-77
2023/05/06 02:48:04;;;;;;;;;2.25;2.25;;;;;17.76;60.98;100855.78;5074550;27;45913;-76
2023/05/06 02:50:29;;;;;;;;;2.50;2.25;;;;;17.78;61.00;100855.63;5074423;27;45864;-79
2023/05/06 02:56:16;;;;;;;;;3.75;3.00;;;;;17.74;61.30;100847.16;5074074;28;45967;-76
2023/05/06 02:58:42;;;;;;;;;2.00;2.00;;;;;17.75;61.08;100846.19;5073104;28;45661;-75
2023/05/06 03:01:07;;;;;;;;;1.25;1.25;;;;;17.75;61.24;100840.03;5074289;27;45912;-74
2023/05/06 03:03:33;;;;;;;;;2.00;1.00;;;;;17.76;61.06;100839.06;5074419;28;45604;-75
2023/05/06 03:05:58;;;;;;;;;2.00;2.00;;;;;17.74;61.37;100836.56;5074130;27;46553;-75
2023/05/06 03:11:45;;;;;;;;;3.00;2.00;;;;;17.73;61.61;100842.84;5074136;28;45475;-74
2023/05/06 03:14:11;;;;;;;;;4.25;3.00;;;;;17.74;61.57;100835.72;5072571;28;47517;-74
2023/05/06 03:16:36;;;;;;;;;3.00;2.00;;;;;17.73;61.55;100840.19;5073703;27;47025;-75
2023/05/06 03:19:02;;;;;;;;;3.00;2.00;;;;;17.71;61.19;100828.88;5074175;27;45525;-74
2023/05/06 03:21:28;;;;;;;;;2.00;2.00;;;;;17.71;61.08;100839.50;5089598;27;45927;-74
2023/05/06 03:23:53;;;;;;;;;2.50;2.00;;;;;17.71;61.71;100836.00;5073793;27;45740;-74
2023/05/06 03:26:20;;;;;;;;;3.75;3.00;;;;;17.69;61.75;100836.19;5073564;27;45627;-75
2023/05/06 03:28:45;;;;;;;;;3.25;2.00;;;;;17.68;61.46;100834.50;5073738;27;45765;-76
2023/05/06 03:31:11;;;;;;;;;3.00;3.00;;;;;17.68;61.66;100838.97;5073919;27;45596;-77
2023/05/06 03:33:36;;;;;;;;;2.75;2.25;;;;;17.67;61.40;100835.47;5073734;27;46791;-74
2023/05/06 03:36:02;;;;;;;;;3.00;2.00;;;;;17.67;61.28;100838.13;5073436;27;46190;-76
2023/05/06 03:41:49;;;;;;;;;2.00;2.00;;;;;17.63;61.60;100830.63;5073641;28;45669;-77
2023/05/06 03:44:14;;;;;;;;;2.50;2.00;;;;;17.60;61.28;100827.28;5073803;27;46588;-78
2023/05/06 03:46:40;;;;;;;;;2.00;2.00;;;;;17.58;62.00;100823.94;5072072;28;47011;-77
2023/05/06 03:49:06;;;;;;;;;3.50;3.00;;;;;17.57;61.67;100839.97;5073454;27;45588;-74
2023/05/06 03:51:31;;;;;;;;;2.00;2.00;;;;;17.56;61.97;100836.50;5073853;27;45612;-74
2023/05/06 03:57:19;;;;;;;;;4.00;2.75;;;;;17.52;62.07;100829.00;5073434;28;45833;-76
2023/05/06 03:59:44;;;;;;;;;2.50;2.50;;;;;17.51;61.88;100827.31;5073465;27;45680;-73
2023/05/06 04:02:09;;;;;;;;;2.00;2.00;;;;;17.49;61.80;100839.91;5073882;27;45807;-76
2023/05/06 04:04:35;;;;;;;;;3.00;3.00;;;;;17.48;62.02;100831.13;5073692;27;46367;-75
2023/05/06 04:07:00;;;;;;;;;2.75;2.50;;;;;17.48;61.90;100832.94;5073263;27;46429;-76
2023/05/06 04:09:26;;;;;;;;;2.00;2.00;;;;;17.49;62.33;100835.41;5073534;27;45596;-76
2023/05/06 04:11:51;;;;;;;;;3.00;3.00;;;;;17.50;62.24;100833.59;5089224;27;45647;-76
2023/05/06 04:14:16;;;;;;;;;3.00;3.00;;;;;17.50;62.02;100834.44;5073223;27;45784;-77
2023/05/06 04:16:42;;;;;;;;;2.00;2.00;;;;;17.52;62.29;100839.59;5073013;27;46181;-77
2023/05/06 04:19:07;;;;;;;;;2.75;2.75;;;;;17.52;62.25;100829.00;5074474;27;45679;-78
2023/05/06 04:21:33;;;;;;;;;4.00;3.50;;;;;17.51;61.90;100822.84;5077103;27;45631;-74
2023/05/06 04:27:33;;;;;;;;;4.00;3.00;;;;;17.51;62.01;100816.72;5067519;28;45875;-74
2023/05/06 04:29:58;;;;;;;;;2.50;2.00;;;;;17.52;62.17;100818.41;5076281;27;46032;-76
2023/05/06 04:32:24;;;;;;;;;3.00;2.00;;;;;17.51;61.85;100822.84;5092335;27;45661;-78
2023/05/06 04:34:50;;;;;;;;;2.50;2.50;;;;;17.53;61.91;100815.59;5076763;28;45612;-77
2023/05/06 04:37:17;;;;;;;;;3.25;2.50;;;;;17.51;61.66;100809.59;5076339;27;46706;-77
2023/05/06 04:39:46;;;;;;;;;4.00;4.00;;;;;17.54;62.31;100811.16;5076653;27;45697;-76
2023/05/06 04:42:12;;;;;;;;;4.00;4.00;;;;;17.53;61.88;100812.13;5076600;27;45603;-76
2023/05/06 04:44:38;;;;;;;;;3.75;3.75;;;;;17.53;62.15;100804.16;5076620;27;45725;-74
2023/05/06 04:47:03;;;;;;;;;3.00;3.00;;;;;17.53;62.07;100804.16;5076455;27;45640;-76
2023/05/06 04:49:29;;;;;;;;;4.75;3.00;;;;;17.52;62.24;100811.28;5076156;27;45552;-75
2023/05/06 04:51:55;;;;;;;;;4.00;3.50;;;;;17.53;62.43;100807.66;5076641;27;45459;-77
2023/05/06 04:57:42;;;;;;;;;4.75;4.50;;;;;17.51;61.78;100817.56;5076077;28;45926;-78
2023/05/06 05:00:09;;;;;;;;;3.00;3.00;;;;;17.51;62.45;100812.25;5076056;27;45462;-73
2023/05/06 05:02:34;;;;;;;;;2.75;2.25;;;;;17.50;62.16;100813.22;5076125;27;45533;-76
2023/05/06 05:04:59;;;;;;;;;5.00;4.00;;;;;17.50;62.15;100813.22;5075844;27;46657;-75
2023/05/06 05:07:25;;;;;;;;;4.25;4.00;;;;;17.52;62.23;100818.41;5076164;27;45505;-75
2023/05/06 05:09:50;;;;;;;;;4.00;4.00;;;;;17.51;62.07;100817.56;5075893;27;45507;-75
2023/05/06 05:12:15;;;;;;;;;4.50;4.00;;;;;17.51;62.40;100833.44;5076284;27;45641;-73
2023/05/06 05:14:41;;;;;;;;;2.75;2.75;;;;;17.51;62.23;100824.66;5076109;27;46205;-72
2023/05/06 05:17:07;;;;;;;;;3.00;3.00;;;;;17.53;62.23;100831.50;5075712;27;47190;-76
2023/05/06 05:19:32;;;;;;;;;4.00;3.75;;;;;17.55;62.34;100833.97;5076018;27;45536;-73
2023/05/06 05:21:57;;;;;;;;;6.25;5.00;;;;;17.56;62.16;100836.50;5075618;27;45924;-73
2023/05/06 05:27:45;;;;;;;;;5.25;4.25;;;;;17.58;62.05;100842.50;5071315;28;45717;-76
2023/05/06 05:30:10;;;;;;;;;5.00;4.00;;;;;17.60;62.32;100845.84;5075193;28;45770;-77
2023/05/06 05:32:35;;;;;;;;;4.00;3.25;;;;;17.61;62.12;100844.03;5075677;27;45672;-72
2023/05/06 05:35:01;;;;;;;;;4.50;4.00;;;;;17.64;62.06;100848.22;5075452;27;46241;-74
2023/05/06 05:37:27;;;;;;;;;5.00;4.75;;;;;17.66;62.20;100851.53;5075689;27;45509;-75
2023/05/06 05:43:13;;;;;;;;;5.00;4.75;;;;;17.68;62.46;100855.72;5075629;28;45679;-74
2023/05/06 05:45:39;;;;;;;;;4.75;4.00;;;;;17.70;62.30;100852.91;5075224;27;47371;-73
2023/05/06 05:48:04;;;;;;;;;4.25;3.25;;;;;17.70;62.25;100861.69;5075468;27;45526;-73
2023/05/06 05:50:30;;;;;;;;;4.50;4.00;;;;;17.73;62.09;100860.56;5073921;28;45456;-74
2023/05/06 05:52:55;;;;;;;;;3.75;3.00;;;;;17.75;61.93;100851.50;5075570;27;45493;-74
2023/05/06 05:55:20;;;;;;;;;6.75;5.25;;;;;17.74;62.48;100843.69;5074918;27;46217;-74
2023/05/06 05:57:46;;;;;;;;;5.50;4.25;;;;;17.73;62.22;100847.31;5075397;27;45625;-72
2023/05/06 06:00:12;;;;;;;;;3.50;3.50;;;;;17.74;62.42;100849.81;5075144;27;45613;-75
2023/05/06 06:02:37;;;;;;;;;4.75;4.00;;;;;17.78;61.87;100860.94;5075236;27;45968;-73
2023/05/06 06:05:03;;;;;;;;;6.00;5.00;;;;;17.80;62.21;100853.69;5075215;27;45567;-72
2023/05/06 06:07:28;;;;;;;;;4.75;4.25;;;;;17.80;62.21;100859.81;5074751;27;46093;-76
2023/05/06 06:13:15;;;;;;;;;4.75;4.50;;;;;17.83;62.17;100864.81;5075139;28;45638;-75
2023/05/06 06:15:40;;;;;;;;;4.00;4.00;;;;;17.84;62.40;100869.13;5074825;27;46512;-76
2023/05/06 06:18:07;;;;;;;;;6.50;5.00;;;;;17.83;62.07;100867.47;5074677;27;46054;-76
2023/05/06 06:20:33;;;;;;;;;5.25;4.50;;;;;17.85;61.83;100872.63;5074787;27;45788;-75
2023/05/06 06:22:59;;;;;;;;;4.25;4.25;;;;;17.88;61.96;100869.66;5075358;27;45582;-72
2023/05/06 06:28:47;;;;;;;;;6.00;5.50;;;;;17.97;61.54;100874.09;5064199;28;46002;-74
2023/05/06 06:31:12;;;;;;;;;7.00;6.00;;;;;18.00;61.55;100868.47;5090302;27;45619;-73
2023/05/06 06:33:37;;;;;;;;;5.75;5.00;;;;;18.03;62.17;100868.16;5074722;27;45813;-76
2023/05/06 06:36:03;;;;;;;;;5.75;5.50;;;;;18.07;62.15;100866.91;5074614;27;46333;-77
2023/05/06 06:38:28;;;;;;;;;4.00;4.00;;;;;18.12;62.06;100869.09;5073083;28;46925;-75
2023/05/06 06:40:54;;;;;;;;;8.00;6.00;;;;;18.14;61.46;100867.94;5074660;27;45639;-75
2023/05/06 06:43:19;;;;;;;;;6.25;5.00;;;;;18.19;61.79;100872.81;5073538;27;45905;-74
2023/05/06 06:45:48;;;;;;;;;5.00;4.00;;;;;18.24;61.56;100865.22;5074441;27;47160;-77
2023/05/06 06:48:14;;;;;;;;;4.00;4.00;;;;;18.28;61.72;100862.13;5089921;27;47573;-77
2023/05/06 06:50:39;;;;;;;;;6.00;4.25;;;;;18.31;61.18;100869.75;5074174;27;45605;-74
2023/05/06 06:53:04;;;;;;;;;4.25;4.00;;;;;18.35;61.22;100862.34;5074608;27;45729;-77
2023/05/06 06:55:30;;;;;;;;;3.75;3.75;;;;;18.39;61.29;100863.69;5074242;27;46645;-74
2023/05/06 06:57:55;;;;;;;;;4.75;4.75;;;;;18.44;61.34;100861.41;5073999;27;46751;-78
2023/05/06 07:00:21;;;;;;;;;5.50;4.00;;;;;18.49;61.29;100874.22;5074468;27;45599;-77
2023/05/06 07:02:47;;;;;;;;;6.50;6.00;;;;;18.53;61.13;100876.41;5074388;27;45761;-75
2023/05/06 07:05:13;;;;;;;;;7.00;5.50;;;;;18.55;61.32;100879.78;5074410;28;46375;-78
2023/05/06 07:07:38;;;;;;;;;6.00;6.00;;;;;18.59;60.83;100877.66;5089649;27;45733;-79
2023/05/06 07:10:04;;;;;;;;;5.00;4.25;;;;;18.59;60.87;100872.34;5074218;27;45591;-75
2023/05/06 07:12:30;;;;;;;;;6.00;5.00;;;;;18.62;60.77;100874.69;5074015;27;45707;-75
2023/05/06 07:14:55;;;;;;;;;4.50;4.00;;;;;18.67;60.50;100877.72;5074198;27;46724;-74
2023/05/06 07:17:21;;;;;;;;;5.00;4.25;;;;;18.71;60.32;100877.25;5089666;27;48066;-74
2023/05/06 07:19:46;;;;;;;;;4.75;3.75;;;;;18.75;60.28;100881.25;5074163;27;45541;-77
2023/05/06 07:22:11;;;;;;;;;4.25;4.25;;;;;18.75;60.47;100889.22;5072686;28;45926;-74
2023/05/06 07:24:37;;;;;;;;;4.75;4.25;;;;;18.80;60.49;100883.44;5073632;27;47405;-75
2023/05/06 07:27:03;;;;;;;;;4.00;4.00;;;;;18.84;59.95;100884.78;5073956;27;45667;-77
2023/05/06 07:29:28;;;;;;;;;6.00;5.25;;;;;18.86;59.87;100872.22;5073511;27;45789;-76
2023/05/06 07:31:53;;;;;;;;;4.75;4.25;;;;;18.91;60.38;100875.22;5073987;27;45785;-73
2023/05/06 07:34:19;;;;;;;;;5.00;5.00;;;;;18.95;60.20;100878.41;5073958;27;45558;-76
2023/05/06 07:36:44;;;;;;;;;5.25;4.25;;;;;18.98;59.99;100876.28;5073699;27;47257;-77
2023/05/06 07:39:10;;;;;;;;;5.75;5.50;;;;;19.02;59.81;100874.97;5073405;27;45730;-76
2023/05/06 07:41:35;;;;;;;;;5.75;5.50;;;;;19.05;59.54;100873.84;5073645;27;45668;-75
2023/05/06 07:44:02;;;;;;;;;7.50;5.25;;;;;19.09;59.80;100883.97;5073723;27;46423;-76
2023/05/06 07:46:27;;;;;;;;;4.25;4.25;;;;;19.11;59.70;100884.63;5073591;27;46286;-73
2023/05/06 07:48:53;;;;;;;;;4.25;4.00;;;;;19.14;59.81;100889.66;5089314;27;45690;-76
2023/05/06 07:51:18;;;;;;;;;6.25;5.75;;;;;19.19;60.14;100886.53;5073634;28;45753;-76
2023/05/06 07:53:44;;;;;;;;;6.50;5.50;;;;;19.20;59.51;100889.03;5074455;27;45599;-73
2023/05/06 07:59:31;;;;;;;;;5.00;4.00;;;;;19.31;59.48;100892.41;5076884;28;45728;-77
2023/05/06 08:01:56;;;;;;;;;4.50;4.50;;;;;19.36;59.73;100898.06;5076862;27;45454;-73
2023/05/06 08:04:22;;;;;;;;;6.50;6.00;;;;;19.40;59.55;100896.75;5076916;27;46365;-76
2023/05/06 08:06:47;;;;;;;;;6.00;5.00;;;;;19.44;59.78;100895.44;5077073;27;45769;-75
2023/05/06 08:09:12;;;;;;;;;6.75;5.75;;;;;19.48;59.23;100892.34;5077058;27;45729;-74
2023/05/06 08:11:38;;;;;;;;;7.00;6.00;;;;;19.51;59.17;100896.50;5076595;27;45887;-74
2023/05/06 08:14:03;;;;;;;;;5.00;5.00;;;;;19.52;59.02;100898.19;5092629;27;47455;-76
2023/05/06 08:16:28;;;;;;;;;5.50;5.00;;;;;19.54;58.90;100899.66;5076859;27;47077;-79
2023/05/06 08:18:54;;;;;;;;;5.75;4.00;;;;;19.58;58.98;100895.72;5076437;28;45702;-78
2023/05/06 08:21:19;;;;;;;;;6.50;5.75;;;;;19.64;59.08;100899.56;5076795;28;45663;-78
2023/05/06 08:23:45;;;;;;;;;4.75;4.25;;;;;19.65;58.61;100890.56;5076648;27;46569;-77
2023/05/06 08:29:32;;;;;;;;;6.00;5.00;;;;;19.65;58.52;100894.06;5068905;28;45763;-77
2023/05/06 08:31:57;;;;;;;;;4.00;3.00;;;;;19.67;58.34;100881.47;5076710;27;45609;-78
2023/05/06 08:34:22;;;;;;;;;5.00;3.75;;;;;19.70;58.57;100881.13;5075227;28;46249;-75
2023/05/06 08:36:48;;;;;;;;;6.50;5.00;;;;;19.77;58.14;100883.13;5092056;27;45832;-78
2023/05/06 08:39:13;;;;;;;;;6.25;4.00;;;;;19.82;58.33;100888.81;5076588;27;45688;-75
2023/05/06 08:45:00;;;;;;;;;5.50;4.75;;;;;19.95;57.98;100887.34;5076220;28;45666;-75
2023/05/06 08:47:26;;;;;;;;;4.50;3.00;;;;;20.00;58.04;100881.53;5076429;27;46201;-76
2023/05/06 08:49:51;;;;;;;;;4.75;4.50;;;;;20.05;58.23;100884.53;5076484;27;45603;-73
2023/05/06 08:52:20;;;;;;;;;5.00;5.00;;;;;20.10;57.77;100891.03;5074856;28;45784;-75
2023/05/06 08:54:46;;;;;;;;;5.00;4.00;;;;;20.16;57.70;100883.41;5076274;27;45639;-75
2023/05/06 08:57:13;;;;;;;;;5.00;4.50;;;;;20.23;57.73;100887.06;5091460;27;47310;-75
2023/05/06 08:59:40;;;;;;;;;6.00;6.00;;;;;20.24;57.37;100884.25;5076234;27;45764;-73
2023/05/06 09:02:05;;;;;;;;;5.00;4.75;;;;;20.27;57.37;100889.25;5076029;27;45629;-75
2023/05/06 09:04:31;;;;;;;;;7.00;6.00;;;;;20.33;57.20;100883.28;5075962;27;46495;-75
2023/05/06 09:06:57;;;;;;;;;5.00;4.00;;;;;20.40;57.04;100892.28;5074865;28;45996;-74
2023/05/06 09:09:23;;;;;;;;;6.25;5.75;;;;;20.45;57.06;100879.31;5075889;27;45784;-73
2023/05/06 09:15:10;;;;;;;;;6.00;5.00;;;;;20.56;56.44;100890.63;5075556;28;45553;-74
2023/05/06 09:17:37;;;;;;;;;5.00;4.25;;;;;20.61;56.60;100889.13;5091217;27;46243;-75
2023/05/06 09:20:05;;;;;;;;;5.75;4.50;;;;;20.67;56.17;100891.13;5075706;27;45766;-73
2023/05/06 09:22:30;;;;;;;;;5.00;5.00;;;;;20.72;56.51;100883.47;5076021;27;45663;-73
2023/05/06 09:24:57;;;;;;;;;3.25;1.75;;;;;20.78;56.25;100887.28;5075635;27;46261;-73
2023/05/06 09:27:27;;;;;;;;;6.25;6.00;;;;;20.79;55.85;100887.09;5075455;27;47156;-72
2023/05/06 09:30:00;;;;;;;;;5.25;5.00;;;;;20.83;56.14;100885.78;5091076;27;46177;-75
2023/05/06 09:32:26;;;;;;;;;7.00;6.00;;;;;20.88;56.10;100890.59;5075807;27;45475;-75
2023/05/06 09:34:52;;;;;;;;;6.00;6.00;;;;;20.94;56.00;100885.41;5075926;27;46420;-75
2023/05/06 09:37:19;;;;;;;;;6.50;5.50;;;;;20.98;56.28;100882.41;5076650;27;46120;-72
2023/05/06 09:39:45;;;;;;;;;5.00;5.00;;;;;21.04;56.30;100881.75;5077213;27;45611;-73
2023/05/06 09:45:32;;;;;;;;;4.00;4.00;;;;;21.19;55.60;100877.41;5075442;28;46166;-73
2023/05/06 09:47:58;;;;;;;;;7.50;5.50;;;;;21.24;55.90;100873.22;5075458;28;46088;-72
2023/05/06 09:50:24;;;;;;;;;5.75;4.75;;;;;21.29;55.03;100876.19;5075085;27;46055;-72
2023/05/06 09:52:50;;;;;;;;;5.50;5.00;;;;;21.35;55.24;100869.34;5075744;27;45530;-76
2023/05/06 09:55:20;;;;;;;;;6.25;5.00;;;;;21.41;54.84;100866.00;5074825;27;46669;-73
2023/05/06 09:57:46;;;;;;;;;6.00;4.50;;;;;21.40;54.64;100864.31;5075161;27;45848;-76
2023/05/06 10:00:13;;;;;;;;;4.75;4.00;;;;;21.43;54.98;100866.63;5075233;27;45599;-78
2023/05/06 10:02:43;;;;;;;;;10.00;4.00;;;;;21.39;54.33;100862.66;5073935;28;45907;-76
2023/05/06 10:05:10;;;;;;;;;5.50;4.75;;;;;21.42;54.24;100861.50;5075105;27;45590;-77
2023/05/06 10:07:37;;;;;;;;;4.50;4.50;;;;;21.43;54.36;100866.63;5075070;27;45702;-79
2023/05/06 10:10:06;;;;;;;;;2.75;2.75;;;;;21.48;54.33;100866.97;5075209;28;45719;-77
2023/05/06 10:15:54;;;;;;;;;6.75;5.75;;;;;21.50;53.82;100854.28;5074622;28;45725;-75
2023/05/06 10:18:21;;;;;;;;;6.00;5.75;;;;;21.53;53.87;100864.63;5073597;28;45858;-74
2023/05/06 10:20:48;;;;;;;;;4.00;4.00;;;;;21.52;53.68;100860.28;5074760;27;45608;-77
2023/05/06 10:23:34;;;;;;;;;4.50;4.50;;;;;21.53;53.48;100861.94;5075250;27;45814;-78
2023/05/06 10:26:08;;;;;;;;;7.00;6.25;;;;;21.56;53.41;100858.94;5074596;27;47388;-76
2023/05/06 10:28:40;;;;;;;;;5.25;5.00;;;;;21.58;53.31;100854.25;5074339;27;46212;-78
2023/05/06 10:31:12;;;;;;;;;4.25;3.75;;;;;21.64;53.38;100850.06;5074761;27;45671;-78
2023/05/06 10:33:49;;;;;;;;;4.25;4.25;;;;;21.66;53.69;100854.22;5074782;27;45537;-77
2023/05/06 10:36:15;;;;;;;;;4.50;4.50;;;;;21.70;52.96;100852.84;5056425;28;48575;-78
2023/05/06 10:38:44;;;;;;;;;6.25;3.25;;;;;21.74;53.06;100853.34;5074549;28;46130;-77
2023/05/06 10:41:12;;;;;;;;;3.75;3.75;;;;;21.80;52.91;100854.47;5074609;27;45916;-74
2023/05/06 10:43:42;;;;;;;;;3.75;3.00;;;;;21.84;53.04;100848.63;5074932;27;45701;-77
2023/05/06 10:46:10;;;;;;;;;5.00;4.00;;;;;21.88;52.71;100841.06;5074184;27;47284;-74
2023/05/06 10:48:38;;;;;;;;;3.00;2.25;;;;;21.90;51.97;100841.75;5074523;27;45619;-77
2023/05/06 10:51:16;;;;;;;;;2.75;2.75;;;;;21.91;51.42;100832.75;5089881;27;45680;-77
2023/05/06 10:54:17;;;;;;;;;3.25;3.00;;;;;21.89;51.96;100835.56;5074445;27;45851;-76
2023/05/06 10:56:48;;;;;;;;;4.50;2.00;;;;;21.90;51.28;100834.56;5074245;28;45583;-75
2023/05/06 10:59:15;;;;;;;;;2.00;2.00;;;;;21.93;51.21;100839.53;5074455;27;45412;-74
2023/05/06 11:01:42;;;;;;;;;3.50;2.75;;;;;21.98;51.12;100833.69;5073219;28;45636;-76
2023/05/06 11:04:14;;;;;;;;;2.75;2.75;;;;;22.01;50.87;100830.69;5074766;28;45533;-77
2023/05/06 11:06:50;;;;;;;;;4.75;2.25;;;;;22.05;51.25;100826.66;5074248;27;45643;-77
2023/05/06 11:09:16;;;;;;;;;3.00;2.00;;;;;22.10;50.41;100826.94;5074054;27;47609;-74
2023/05/06 11:11:53;;;;;;;;;3.00;3.00;;;;;22.16;50.97;100827.06;5074129;27;45591;-77
2023/05/06 11:14:29;;;;;;;;;1.75;1.75;;;;;22.25;50.47;100817.16;5074176;27;45966;-74
2023/05/06 11:16:56;;;;;;;;;2.00;2.00;;;;;22.27;50.74;100819.66;5074245;27;46438;-77
2023/05/06 11:19:23;;;;;;;;;2.75;2.00;;;;;22.34;50.17;100815.25;5073843;27;46425;-76
2023/05/06 11:21:49;;;;;;;;;3.00;2.75;;;;;22.39;49.86;100815.53;5073795;27;45594;-78
2023/05/06 11:24:23;;;;;;;;;2.00;2.00;;;;;22.44;50.25;100805.16;5074057;28;45489;-79
2023/05/06 11:26:49;;;;;;;;;2.25;2.00;;;;;22.49;49.32;100803.59;5073611;27;47705;-75
2023/05/06 11:29:16;;;;;;;;;2.00;1.75;;;;;22.55;49.22;100804.72;5073037;28;46156;-78
2023/05/06 11:31:43;;;;;;;;;2.75;2.00;;;;;22.62;48.76;100802.16;5073813;27;45623;-77
2023/05/06 11:34:11;;;;;;;;;1.50;1.50;;;;;22.58;48.98;100794.47;5089734;27;45615;-75
2023/05/06 11:36:45;;;;;;;;;2.75;2.00;;;;;22.58;48.92;100796.31;5072148;28;47475;-76
2023/05/06 11:39:11;;;;;;;;;3.00;2.00;;;;;22.64;48.47;100789.41;5073809;27;45776;-77
2023/05/06 11:41:40;;;;;;;;;2.50;2.50;;;;;22.71;48.47;100788.56;5073625;27;45662;-76
2023/05/06 11:44:06;;;;;;;;;3.50;2.25;;;;;22.74;49.19;100790.00;5073682;27;45525;-77
2023/05/06 11:46:32;;;;;;;;;2.25;2.00;;;;;22.78;48.90;100794.78;5073492;27;47528;-78
2023/05/06 11:48:59;;;;;;;;;3.50;2.00;;;;;22.85;48.95;100797.56;5073569;27;46082;-78
2023/05/06 11:51:25;;;;;;;;;1.25;1.25;;;;;22.84;48.65;100793.22;5073295;27;45656;-78
2023/05/06 11:54:10;;;;;;;;;3.00;2.00;;;;;22.83;47.61;100808.47;5072396;28;45911;-76
2023/05/06 11:56:50;;;;;;;;;2.25;2.00;;;;;22.83;47.87;100815.66;5073077;27;45770;-77
2023/05/06 11:59:17;;;;;;;;;3.00;2.50;;;;;22.86;48.35;100800.06;5073556;27;45748;-78
2023/05/06 12:01:44;;;;;;;;;2.00;2.00;;;;;22.91;48.42;100794.16;5073394;27;45590;-78
2023/05/06 12:04:10;;;;;;;;;3.00;2.00;;;;;22.97;48.14;100798.78;5072334;27;45600;-78
2023/05/06 12:06:36;;;;;;;;;3.00;2.75;;;;;23.02;47.70;100794.53;5073197;27;46352;-77
2023/05/06 12:09:05;;;;;;;;;3.00;2.75;;;;;23.06;47.60;100783.47;5073173;27;46505;-77
2023/05/06 12:11:31;;;;;;;;;2.00;2.00;;;;;23.16;47.31;100798.19;5073058;27;45651;-77
2023/05/06 12:13:57;;;;;;;;;1.50;1.50;;;;;23.24;46.85;100795.44;5073474;27;45875;-78
2023/05/06 12:16:24;;;;;;;;;1.75;1.75;;;;;23.31;47.02;100792.84;5073499;27;45583;-77
2023/05/06 12:18:52;;;;;;;;;3.00;2.00;;;;;23.41;46.05;100791.53;5073099;27;46187;-77
2023/05/06 12:21:21;;;;;;;;;3.00;2.00;;;;;23.52;46.21;100800.94;5073400;27;45609;-78
2023/05/06 12:23:51;;;;;;;;;1.50;1.50;;;;;23.53;45.95;100791.09;5072024;28;45944;-73
2023/05/06 12:26:18;;;;;;;;;2.00;2.00;;;;;23.55;45.83;100803.25;5073029;27;46562;-76
2023/05/06 12:32:19;;;;;;;;;4.25;3.00;;;;;23.67;45.27;100785.69;5064051;28;46788;-72
2023/05/06 12:34:44;;;;;;;;;1.25;1.00;;;;;23.71;44.81;100786.13;5073285;28;45644;-76
2023/05/06 12:37:10;;;;;;;;;1.00;1.00;;;;;23.78;45.47;100787.03;5073062;27;45654;-77
2023/05/06 12:39:37;;;;;;;;;2.75;2.50;;;;;23.87;45.32;100785.88;5072625;27;46973;-75
2023/05/06 12:42:02;;;;;;;;;1.25;1.25;;;;;23.93;44.76;100781.59;5075331;28;45731;-77
2023/05/06 12:44:35;;;;;;;;;2.00;2.00;;;;;23.91;44.33;100787.19;5076440;27;45520;-76
2023/05/06 12:47:08;;;;;;;;;1.00;1.00;;;;;23.89;43.94;100783.00;5076436;27;45647;-76
2023/05/06 12:49:45;;;;;;;;;0.00;0.00;;;;;23.89;43.72;100794.56;5076546;27;45627;-75